createdAt,value
2023-08-14T00:00:08.930Z,15.20
2023-08-14T00:02:45.955Z,15.19
2023-08-14T00:05:15.798Z,15.19
2023-08-14T00:07:45.603Z,15.22
2023-08-14T00:10:15.614Z,15.27
2023-08-14T00:12:45.388Z,15.30
2023-08-14T00:15:15.428Z,15.35
2023-08-14T00:17:48.028Z,15.36
2023-08-14T00:20:17.847Z,15.36
2023-08-14T00:22:47.623Z,15.35
2023-08-14T00:25:17.591Z,15.35
2023-08-14T00:27:47.366Z,15.37
2023-08-14T00:30:17.268Z,15.37
2023-08-14T00:32:49.839Z,15.37
2023-08-14T00:35:19.880Z,15.33
2023-08-14T00:37:51.175Z,15.30
2023-08-14T00:40:21.169Z,15.26
2023-08-14T00:42:51.099Z,15.23
2023-08-14T00:45:22.231Z,15.20
2023-08-14T00:47:55.342Z,15.18
2023-08-14T00:50:25.295Z,15.16
2023-08-14T00:52:58.175Z,15.16
2023-08-14T00:55:29.458Z,15.18
2023-08-14T00:57:59.591Z,15.19
2023-08-14T01:00:29.936Z,15.22
2023-08-14T01:03:02.585Z,15.28
2023-08-14T01:05:32.580Z,15.33
2023-08-14T01:08:02.568Z,15.37
2023-08-14T01:10:42.863Z,15.40
2023-08-14T01:13:25.242Z,15.42
2023-08-14T01:15:57.802Z,15.39
2023-08-14T01:18:31.720Z,15.38
2023-08-14T01:21:14.946Z,15.37
2023-08-14T01:23:53.756Z,15.32
2023-08-14T01:26:26.628Z,15.28
2023-08-14T01:28:57.682Z,15.25
2023-08-14T01:31:27.594Z,15.20
2023-08-14T01:33:57.756Z,15.15
2023-08-14T01:36:31.818Z,15.10
2023-08-14T01:39:08.455Z,15.05
2023-08-14T01:41:45.568Z,14.99
2023-08-14T01:44:18.142Z,14.96
2023-08-14T01:46:48.013Z,14.93
2023-08-14T01:49:18.829Z,14.91
2023-08-14T01:51:50.476Z,14.89
2023-08-14T01:54:20.613Z,14.87
2023-08-14T01:56:53.024Z,14.82
2023-08-14T01:59:28.568Z,14.77
2023-08-14T02:01:58.446Z,14.75
2023-08-14T02:04:28.241Z,14.72
2023-08-14T02:06:58.016Z,14.70
2023-08-14T02:09:27.815Z,14.65
2023-08-14T02:12:00.347Z,14.61
2023-08-14T02:14:30.142Z,14.58
2023-08-14T02:17:00.039Z,14.52
2023-08-14T02:19:29.821Z,14.47
2023-08-14T02:21:59.626Z,14.43
2023-08-14T02:24:29.382Z,14.39
2023-08-14T02:27:01.805Z,14.35
2023-08-14T02:29:31.823Z,14.34
2023-08-14T02:32:01.654Z,14.35
2023-08-14T02:34:36.607Z,14.35
2023-08-14T02:37:06.428Z,14.32
2023-08-14T02:39:36.205Z,14.30
2023-08-14T02:42:08.949Z,14.28
2023-08-14T02:44:39.272Z,14.29
2023-08-14T02:47:09.781Z,14.26
2023-08-14T02:49:39.815Z,14.24
2023-08-14T02:52:09.872Z,14.21
2023-08-14T02:54:39.816Z,14.17
2023-08-14T02:57:12.355Z,14.12
2023-08-14T02:59:42.227Z,14.06
2023-08-14T03:02:12.213Z,14.00
2023-08-14T03:04:43.335Z,13.96
2023-08-14T03:07:13.180Z,13.94
2023-08-14T03:09:42.938Z,13.95
2023-08-14T03:12:15.566Z,13.95
2023-08-14T03:14:45.830Z,13.93
2023-08-14T03:17:15.784Z,13.88
2023-08-14T03:19:45.594Z,13.82
2023-08-14T03:22:15.878Z,13.77
2023-08-14T03:24:46.307Z,13.72
2023-08-14T03:27:18.760Z,13.68
2023-08-14T03:29:48.732Z,13.61
2023-08-14T03:32:19.002Z,13.57
2023-08-14T03:34:49.253Z,13.53
2023-08-14T03:37:19.163Z,13.51
2023-08-14T03:39:50.092Z,13.46
2023-08-14T03:42:22.803Z,13.44
2023-08-14T03:44:52.741Z,13.42
2023-08-14T03:47:22.531Z,13.40
2023-08-14T03:49:52.312Z,13.37
2023-08-14T03:52:22.094Z,13.36
2023-08-14T03:54:51.903Z,13.34
2023-08-14T03:57:25.814Z,13.32
2023-08-14T03:59:55.662Z,13.31
2023-08-14T04:02:25.735Z,13.30
2023-08-14T04:04:55.828Z,13.32
2023-08-14T04:07:25.659Z,13.34
2023-08-14T04:09:55.439Z,13.34
2023-08-14T04:12:27.866Z,13.36
2023-08-14T04:14:57.705Z,13.36
2023-08-14T04:17:27.498Z,13.39
2023-08-14T04:19:57.330Z,13.44
2023-08-14T04:22:27.207Z,13.48
2023-08-14T04:24:56.980Z,13.51
2023-08-14T04:27:29.362Z,13.52
2023-08-14T04:29:59.197Z,13.52
2023-08-14T04:32:29.552Z,13.52
2023-08-14T04:34:59.430Z,13.54
2023-08-14T04:37:29.493Z,13.57
2023-08-14T04:39:59.497Z,13.58
2023-08-14T04:42:32.526Z,13.60
2023-08-14T04:45:02.339Z,13.61
2023-08-14T04:47:32.612Z,13.62
2023-08-14T04:50:03.626Z,13.64
2023-08-14T04:52:33.423Z,13.67
2023-08-14T04:55:03.279Z,13.72
2023-08-14T04:57:39.986Z,13.77
2023-08-14T05:00:13.034Z,13.83
2023-08-14T05:02:43.938Z,13.90
2023-08-14T05:05:14.048Z,14.00
2023-08-14T05:07:43.848Z,14.12
2023-08-14T05:10:13.726Z,14.23
2023-08-14T05:12:48.471Z,14.36
2023-08-14T05:15:18.570Z,14.46
2023-08-14T05:17:48.421Z,14.57
2023-08-14T05:20:18.544Z,14.67
2023-08-14T05:22:48.698Z,14.78
2023-08-14T05:25:18.550Z,14.89
2023-08-14T05:27:51.136Z,15.01
2023-08-14T05:30:21.110Z,15.12
2023-08-14T05:32:50.946Z,15.22
2023-08-14T05:35:24.870Z,15.34
2023-08-14T05:37:56.917Z,15.46
2023-08-14T05:40:27.106Z,15.59
2023-08-14T05:43:09.792Z,15.76
2023-08-14T05:45:40.936Z,15.92
2023-08-14T05:48:11.206Z,16.10
2023-08-14T05:50:41.221Z,16.29
2023-08-14T05:53:11.308Z,16.46
2023-08-14T05:55:42.902Z,16.65
2023-08-14T05:58:15.277Z,16.87
2023-08-14T06:00:45.189Z,17.09
2023-08-14T06:03:20.248Z,17.36
2023-08-14T06:05:55.580Z,17.67
2023-08-14T06:08:25.331Z,17.92
2023-08-14T06:10:55.240Z,18.14
2023-08-14T06:13:27.678Z,18.37
2023-08-14T06:15:57.465Z,18.55
2023-08-14T06:18:27.742Z,18.74
2023-08-14T06:20:59.798Z,18.99
2023-08-14T06:23:29.629Z,19.24
2023-08-14T06:26:00.637Z,19.50
2023-08-14T06:28:33.118Z,19.67
2023-08-14T06:31:05.002Z,19.77
2023-08-14T06:33:36.568Z,19.87
2023-08-14T06:36:09.971Z,19.99
2023-08-14T06:38:40.027Z,20.03
2023-08-14T06:41:10.434Z,20.08
2023-08-14T06:43:44.054Z,20.26
2023-08-14T06:46:13.904Z,20.77
2023-08-14T06:48:43.715Z,21.57
2023-08-14T06:51:13.543Z,22.55
2023-08-14T06:53:43.401Z,23.70
2023-08-14T06:56:13.354Z,24.25
2023-08-14T06:58:45.718Z,24.11
2023-08-14T07:01:15.589Z,23.78
2023-08-14T07:03:45.434Z,23.63
2023-08-14T07:06:15.468Z,23.90
2023-08-14T07:08:45.776Z,24.13
2023-08-14T07:11:15.514Z,24.28
2023-08-14T07:13:49.025Z,24.35
2023-08-14T07:16:18.916Z,24.62
2023-08-14T07:18:48.752Z,25.02
2023-08-14T07:21:18.519Z,25.28
2023-08-14T07:23:48.352Z,25.46
2023-08-14T07:26:18.176Z,25.56
2023-08-14T07:28:50.560Z,25.43
2023-08-14T07:31:20.313Z,25.24
2023-08-14T07:33:50.124Z,25.26
2023-08-14T07:36:19.900Z,25.41
2023-08-14T07:38:49.711Z,25.56
2023-08-14T07:41:19.513Z,25.71
2023-08-14T07:43:51.890Z,26.00
2023-08-14T07:46:21.663Z,26.49
2023-08-14T07:48:54.495Z,27.29
2023-08-14T07:51:24.868Z,28.53
2023-08-14T07:53:54.704Z,29.48
2023-08-14T07:56:24.483Z,30.68
2023-08-14T07:58:56.836Z,31.58
2023-08-14T08:01:26.681Z,31.63
2023-08-14T08:03:56.467Z,31.42
2023-08-14T08:06:26.941Z,32.02
2023-08-14T08:08:56.864Z,33.09
2023-08-14T08:11:26.622Z,34.06
2023-08-14T08:14:01.102Z,35.16
2023-08-14T08:16:31.875Z,35.74
2023-08-14T08:19:01.657Z,36.25
2023-08-14T08:21:31.421Z,36.81
2023-08-14T08:24:01.276Z,37.18
2023-08-14T08:26:31.056Z,37.48
2023-08-14T08:29:03.639Z,37.67
2023-08-14T08:31:33.397Z,37.83
2023-08-14T08:34:03.185Z,38.02
2023-08-14T08:36:32.953Z,38.35
2023-08-14T08:39:02.678Z,38.39
2023-08-14T08:41:35.538Z,38.47
2023-08-14T08:44:10.167Z,38.69
2023-08-14T08:46:44.432Z,38.66
2023-08-14T08:49:14.878Z,38.68
2023-08-14T08:51:48.740Z,38.89
2023-08-14T08:54:19.377Z,39.17
2023-08-14T08:56:49.389Z,39.48
2023-08-14T08:59:22.772Z,39.84
2023-08-14T09:01:54.094Z,40.20
2023-08-14T09:04:25.342Z,40.80
2023-08-14T09:06:55.149Z,41.10
2023-08-14T09:09:25.781Z,41.01
2023-08-14T09:11:55.561Z,40.60
2023-08-14T09:14:28.415Z,40.33
2023-08-14T09:16:59.110Z,39.95
2023-08-14T09:19:28.997Z,39.73
2023-08-14T09:21:59.480Z,39.89
2023-08-14T09:24:29.323Z,40.03
2023-08-14T09:26:59.074Z,39.65
2023-08-14T09:29:34.132Z,38.89
2023-08-14T09:32:05.333Z,38.45
2023-08-14T09:34:35.144Z,38.39
2023-08-14T09:37:04.895Z,38.52
2023-08-14T09:39:34.651Z,38.71
2023-08-14T09:42:04.380Z,39.01
2023-08-14T09:44:36.703Z,38.99
2023-08-14T09:47:06.392Z,39.10
2023-08-14T09:49:36.319Z,38.87
2023-08-14T09:52:07.851Z,37.80
2023-08-14T09:54:38.240Z,36.76
2023-08-14T09:57:08.822Z,36.97
2023-08-14T09:59:41.858Z,37.97
2023-08-14T10:02:12.567Z,38.84
2023-08-14T10:04:43.040Z,39.62
2023-08-14T10:07:13.301Z,40.15
2023-08-14T10:09:44.142Z,39.91
2023-08-14T10:12:16.756Z,39.53
2023-08-14T10:14:52.146Z,38.67
2023-08-14T10:17:24.203Z,37.34
2023-08-14T10:19:56.304Z,36.26
2023-08-14T10:22:27.130Z,35.56
2023-08-14T10:24:57.380Z,34.70
2023-08-14T10:27:28.249Z,33.86
2023-08-14T10:30:01.913Z,33.23
2023-08-14T10:32:34.192Z,32.76
2023-08-14T10:35:04.452Z,32.37
2023-08-14T10:37:52.884Z,32.14
2023-08-14T10:40:28.144Z,31.93
2023-08-14T10:43:02.349Z,31.79
2023-08-14T10:45:35.428Z,31.65
2023-08-14T10:48:12.496Z,31.55
2023-08-14T10:50:42.382Z,31.47
2023-08-14T10:53:15.008Z,31.35
2023-08-14T10:55:48.259Z,31.11
2023-08-14T10:58:40.119Z,30.88
2023-08-14T11:01:13.899Z,30.76
2023-08-14T11:04:02.294Z,30.68
2023-08-14T11:06:35.057Z,30.61
2023-08-14T11:09:07.641Z,30.55
2023-08-14T11:11:40.458Z,30.49
2023-08-14T11:14:10.838Z,30.42
2023-08-14T11:16:48.849Z,30.34
2023-08-14T11:19:23.708Z,30.28
2023-08-14T11:21:54.845Z,30.28
2023-08-14T11:24:25.476Z,30.14
2023-08-14T11:26:56.811Z,30.11
2023-08-14T11:29:34.265Z,30.05
2023-08-14T11:32:09.425Z,30.07
2023-08-14T11:34:40.461Z,30.07
2023-08-14T11:37:13.959Z,30.12
2023-08-14T11:39:45.448Z,30.09
2023-08-14T11:42:15.568Z,29.99
2023-08-14T11:44:46.028Z,29.77
2023-08-14T11:47:18.891Z,29.57
2023-08-14T11:49:49.595Z,29.26
2023-08-14T11:52:24.576Z,28.97
2023-08-14T11:54:54.738Z,28.78
2023-08-14T11:57:26.880Z,28.70
2023-08-14T11:59:57.907Z,28.69
2023-08-14T12:02:31.928Z,28.70
2023-08-14T12:05:04.982Z,28.70
2023-08-14T12:07:35.114Z,28.69
2023-08-14T12:10:10.716Z,28.66
2023-08-14T12:12:51.491Z,28.66
2023-08-14T12:15:29.900Z,28.66
2023-08-14T12:18:02.499Z,28.67
2023-08-14T12:20:35.405Z,28.74
2023-08-14T12:23:21.336Z,28.86
2023-08-14T12:25:53.292Z,28.93
2023-08-14T12:28:23.498Z,28.85
2023-08-14T12:30:53.482Z,28.73
2023-08-14T12:33:25.978Z,28.65
2023-08-14T12:35:55.972Z,28.57
2023-08-14T12:38:25.789Z,28.47
2023-08-14T12:40:55.679Z,28.48
2023-08-14T12:43:36.556Z,28.44
2023-08-14T12:46:10.636Z,28.33
2023-08-14T12:48:43.208Z,28.35
2023-08-14T12:51:12.976Z,28.46
2023-08-14T12:53:42.766Z,28.50
2023-08-14T12:56:18.133Z,28.50
2023-08-14T12:58:49.246Z,28.58
2023-08-14T13:01:24.126Z,28.61
2023-08-14T13:03:59.746Z,28.63
2023-08-14T13:06:30.948Z,28.68
2023-08-14T13:09:00.888Z,28.67
2023-08-14T13:11:31.267Z,28.63
2023-08-14T13:14:01.204Z,28.52
2023-08-14T13:16:30.992Z,28.38
2023-08-14T13:19:03.381Z,28.00
2023-08-14T13:21:33.142Z,27.69
2023-08-14T13:24:03.059Z,27.61
2023-08-14T13:26:35.754Z,27.61
2023-08-14T13:29:07.334Z,27.59
2023-08-14T13:31:37.108Z,27.51
2023-08-14T13:34:09.484Z,27.40
2023-08-14T13:36:39.264Z,27.23
2023-08-14T13:39:10.721Z,27.06
2023-08-14T13:41:40.467Z,26.89
2023-08-14T13:44:11.836Z,26.75
2023-08-14T13:46:42.282Z,26.58
2023-08-14T13:49:14.705Z,26.46
2023-08-14T13:51:46.013Z,26.45
2023-08-14T13:54:15.969Z,26.47
2023-08-14T13:56:45.709Z,26.45
2023-08-14T13:59:15.678Z,26.43
2023-08-14T14:01:48.148Z,26.41
2023-08-14T14:04:21.034Z,26.39
2023-08-14T14:06:50.943Z,26.43
2023-08-14T14:09:20.811Z,26.47
2023-08-14T14:11:50.657Z,26.52
2023-08-14T14:14:20.427Z,26.53
2023-08-14T14:16:54.268Z,26.50
2023-08-14T14:19:26.808Z,26.44
2023-08-14T14:21:56.582Z,26.44
2023-08-14T14:24:26.405Z,26.47
2023-08-14T14:26:56.356Z,26.50
2023-08-14T14:29:26.792Z,26.54
2023-08-14T14:31:57.042Z,26.68
2023-08-14T14:34:30.152Z,26.82
2023-08-14T14:37:00.055Z,26.94
2023-08-14T14:39:29.785Z,27.00
2023-08-14T14:41:59.553Z,26.98
2023-08-14T14:44:29.512Z,26.95
2023-08-14T14:46:59.241Z,26.86
2023-08-14T14:49:31.612Z,26.77
2023-08-14T14:52:03.952Z,26.68
2023-08-14T14:54:33.709Z,26.64
2023-08-14T14:57:03.466Z,26.64
2023-08-14T14:59:33.226Z,26.65
2023-08-14T15:02:09.242Z,26.67
2023-08-14T15:04:48.456Z,26.64
2023-08-14T15:07:18.450Z,26.63
2023-08-14T15:09:48.484Z,26.65
2023-08-14T15:12:18.245Z,26.68
2023-08-14T15:14:47.976Z,26.61
2023-08-14T15:17:17.979Z,26.56
2023-08-14T15:19:50.501Z,26.61
2023-08-14T15:22:20.291Z,26.71
2023-08-14T15:24:50.078Z,26.81
2023-08-14T15:27:20.131Z,26.95
2023-08-14T15:29:50.122Z,27.05
2023-08-14T15:32:19.898Z,27.11
2023-08-14T15:34:52.238Z,27.19
2023-08-14T15:37:22.105Z,27.26
2023-08-14T15:39:53.753Z,27.23
2023-08-14T15:42:23.505Z,27.17
2023-08-14T15:44:56.485Z,27.16
2023-08-14T15:47:26.423Z,27.09
2023-08-14T15:49:58.804Z,27.08
2023-08-14T15:52:32.202Z,27.13
2023-08-14T15:55:02.103Z,27.19
2023-08-14T15:57:31.864Z,27.20
2023-08-14T16:00:04.010Z,27.14
2023-08-14T16:02:34.738Z,27.03
2023-08-14T16:05:07.584Z,26.88
2023-08-14T16:07:37.386Z,26.79
2023-08-14T16:10:07.928Z,26.80
2023-08-14T16:12:37.701Z,26.83
2023-08-14T16:15:10.194Z,26.89
2023-08-14T16:17:43.082Z,26.91
2023-08-14T16:20:16.198Z,26.78
2023-08-14T16:22:46.007Z,26.60
2023-08-14T16:25:15.837Z,26.42
2023-08-14T16:27:45.590Z,26.30
2023-08-14T16:30:15.506Z,26.23
2023-08-14T16:32:47.562Z,26.20
2023-08-14T16:35:20.234Z,26.13
2023-08-14T16:37:49.997Z,26.11
2023-08-14T16:40:19.996Z,26.09
2023-08-14T16:42:49.788Z,26.06
2023-08-14T16:45:19.578Z,25.99
2023-08-14T16:47:49.339Z,25.93
2023-08-14T16:50:21.932Z,25.84
2023-08-14T16:52:53.485Z,25.74
2023-08-14T16:55:23.245Z,25.70
2023-08-14T16:57:53.111Z,25.73
2023-08-14T17:00:23.220Z,25.77
2023-08-14T17:02:53.729Z,25.79
2023-08-14T17:05:26.357Z,25.79
2023-08-14T17:07:56.474Z,25.80
2023-08-14T17:10:26.224Z,25.84
2023-08-14T17:12:56.019Z,25.86
2023-08-14T17:15:25.789Z,25.83
2023-08-14T17:17:55.575Z,25.82
2023-08-14T17:20:28.011Z,25.82
2023-08-14T17:22:57.776Z,25.82
2023-08-14T17:25:27.549Z,25.83
2023-08-14T17:27:57.359Z,25.82
2023-08-14T17:30:27.232Z,25.81
2023-08-14T17:32:57.077Z,25.74
2023-08-14T17:35:29.497Z,25.65
2023-08-14T17:37:59.367Z,25.58
2023-08-14T17:40:30.732Z,25.51
2023-08-14T17:43:00.511Z,25.44
2023-08-14T17:45:30.307Z,25.36
2023-08-14T17:48:00.392Z,25.25
2023-08-14T17:50:34.258Z,25.16
2023-08-14T17:53:05.412Z,25.09
2023-08-14T17:55:35.247Z,25.03
2023-08-14T17:58:05.126Z,24.96
2023-08-14T18:00:35.309Z,24.88
2023-08-14T18:03:05.688Z,24.83
2023-08-14T18:05:38.604Z,24.75
2023-08-14T18:08:11.628Z,24.66
2023-08-14T18:10:41.621Z,24.58
2023-08-14T18:13:11.419Z,24.52
2023-08-14T18:15:41.953Z,24.46
2023-08-14T18:18:11.996Z,24.41
2023-08-14T18:20:44.480Z,24.33
2023-08-14T18:23:14.263Z,24.27
2023-08-14T18:25:44.008Z,24.19
2023-08-14T18:28:13.799Z,24.10
2023-08-14T18:30:45.402Z,24.04
2023-08-14T18:33:16.358Z,23.97
2023-08-14T18:35:50.112Z,23.90
2023-08-14T18:38:20.051Z,23.83
2023-08-14T18:40:50.224Z,23.77
2023-08-14T18:43:20.030Z,23.72
2023-08-14T18:45:50.006Z,23.66
2023-08-14T18:48:19.850Z,23.60
2023-08-14T18:50:52.250Z,23.52
2023-08-14T18:53:22.629Z,23.46
2023-08-14T18:55:52.625Z,23.39
2023-08-14T18:58:23.037Z,23.31
2023-08-14T19:00:52.895Z,23.25
2023-08-14T19:03:22.683Z,23.19
2023-08-14T19:05:59.652Z,23.15
2023-08-14T19:08:30.188Z,23.11
2023-08-14T19:11:00.374Z,23.08
2023-08-14T19:13:30.335Z,23.03
2023-08-14T19:16:00.622Z,22.99
2023-08-14T19:18:30.565Z,22.93
2023-08-14T19:21:03.472Z,22.87
2023-08-14T19:23:33.328Z,22.80
2023-08-14T19:26:14.969Z,22.75
2023-08-14T19:28:48.911Z,22.69
2023-08-14T19:31:18.762Z,22.63
2023-08-14T19:33:48.568Z,22.59
2023-08-14T19:36:21.279Z,22.54
2023-08-14T19:38:51.083Z,22.50
2023-08-14T19:41:21.135Z,22.46
2023-08-14T19:43:51.495Z,22.44
2023-08-14T19:46:21.590Z,22.40
2023-08-14T19:48:51.559Z,22.37
2023-08-14T19:51:24.115Z,22.33
2023-08-14T19:53:54.221Z,22.30
2023-08-14T19:56:24.023Z,22.26
2023-08-14T19:58:54.093Z,22.20
2023-08-14T20:01:24.232Z,22.16
2023-08-14T20:03:54.197Z,22.10
2023-08-14T20:06:26.929Z,22.09
2023-08-14T20:08:56.761Z,22.04
2023-08-14T20:11:26.648Z,22.00
2023-08-14T20:13:56.514Z,21.96
2023-08-14T20:16:26.346Z,21.95
2023-08-14T20:18:56.854Z,21.93
2023-08-14T20:21:29.518Z,21.91
2023-08-14T20:24:00.003Z,21.91
2023-08-14T20:26:29.885Z,21.90
2023-08-14T20:28:59.712Z,21.87
2023-08-14T20:31:29.499Z,21.84
2023-08-14T20:33:59.344Z,21.84
2023-08-14T20:36:33.915Z,21.85
2023-08-14T20:39:03.827Z,21.83
2023-08-14T20:41:36.524Z,21.81
2023-08-14T20:44:06.743Z,21.80
2023-08-14T20:46:36.594Z,21.78
2023-08-14T20:49:06.644Z,21.76
2023-08-14T20:51:39.151Z,21.79
2023-08-14T20:54:09.491Z,21.83
2023-08-14T20:56:39.252Z,21.87
2023-08-14T20:59:09.009Z,21.90
2023-08-14T21:01:38.834Z,21.87
2023-08-14T21:04:09.528Z,21.83
2023-08-14T21:06:41.983Z,21.79
2023-08-14T21:09:11.738Z,21.76
2023-08-14T21:11:41.553Z,21.70
2023-08-14T21:16:41.641Z,21.69
2023-08-14T21:19:12.914Z,21.67
2023-08-14T21:21:47.769Z,21.65
2023-08-14T21:24:17.609Z,21.62
2023-08-14T21:26:47.390Z,21.57
2023-08-14T21:29:17.258Z,21.56
2023-08-14T21:31:47.050Z,21.52
2023-08-14T21:34:17.398Z,21.49
2023-08-14T21:36:49.824Z,21.47
2023-08-14T21:39:20.453Z,21.47
2023-08-14T21:41:50.354Z,21.45
2023-08-14T21:44:22.510Z,21.46
2023-08-14T21:46:52.327Z,21.45
2023-08-14T21:49:22.560Z,21.43
2023-08-14T21:51:55.163Z,21.43
2023-08-14T21:54:24.993Z,21.41
2023-08-14T21:56:54.830Z,21.42
2023-08-14T21:59:24.652Z,21.41
2023-08-14T22:01:54.488Z,21.42
2023-08-14T22:04:24.569Z,21.41
2023-08-14T22:06:57.013Z,21.40
2023-08-14T22:09:28.491Z,21.36
2023-08-14T22:11:58.271Z,21.33
2023-08-14T22:14:28.035Z,21.29
2023-08-14T22:16:57.876Z,21.26
2023-08-14T22:19:27.794Z,21.22
2023-08-14T22:22:00.290Z,21.20
2023-08-14T22:24:40.282Z,21.20
2023-08-14T22:27:12.361Z,21.18
2023-08-14T22:29:42.257Z,21.17
2023-08-14T22:32:12.079Z,21.13
2023-08-14T22:34:42.103Z,21.11
2023-08-14T22:37:14.528Z,21.11
2023-08-14T22:39:44.361Z,21.10
2023-08-14T22:42:14.204Z,21.10
2023-08-14T22:44:43.961Z,21.09
2023-08-14T22:47:13.770Z,21.11
2023-08-14T22:49:43.706Z,21.13
2023-08-14T22:52:16.138Z,21.17
2023-08-14T22:54:46.090Z,21.20
2023-08-14T22:57:15.942Z,21.22
2023-08-14T22:59:45.949Z,21.24
2023-08-14T23:02:16.136Z,21.25
2023-08-14T23:04:45.919Z,21.27
2023-08-14T23:07:18.625Z,21.29
2023-08-14T23:09:48.577Z,21.30
2023-08-14T23:12:18.361Z,21.32
2023-08-14T23:14:48.404Z,21.32
2023-08-14T23:17:18.483Z,21.34
2023-08-14T23:19:48.674Z,21.33
2023-08-14T23:22:21.177Z,21.32
2023-08-14T23:24:51.177Z,21.29
2023-08-14T23:27:21.249Z,21.23
2023-08-14T23:29:52.541Z,21.18
2023-08-14T23:32:22.569Z,21.10
2023-08-14T23:34:53.366Z,21.05
2023-08-14T23:37:26.769Z,21.00
2023-08-14T23:39:56.571Z,20.94
2023-08-14T23:42:26.554Z,20.90
2023-08-14T23:44:56.322Z,20.84
2023-08-14T23:47:27.031Z,20.81
2023-08-14T23:49:56.781Z,20.76
2023-08-14T23:52:29.112Z,20.72
2023-08-14T23:54:58.884Z,20.68
2023-08-14T23:57:28.660Z,20.63
2023-08-14T23:59:58.493Z,20.60
